createdAt,value
2022-10-23T00:00:28.175Z,0.00
2022-10-23T00:01:28.110Z,0.00
2022-10-23T00:02:28.104Z,0.00
2022-10-23T00:03:27.981Z,0.00
2022-10-23T00:04:27.943Z,0.00
2022-10-23T00:05:27.872Z,0.00
2022-10-23T00:06:27.835Z,0.00
2022-10-23T00:07:27.845Z,0.00
2022-10-23T00:08:27.716Z,0.00
2022-10-23T00:09:27.662Z,0.00
2022-10-23T00:10:27.622Z,0.00
2022-10-23T00:11:27.556Z,0.00
2022-10-23T00:12:27.503Z,0.00
2022-10-23T00:13:27.452Z,0.00
2022-10-23T00:14:27.395Z,0.00
2022-10-23T00:15:27.374Z,0.00
2022-10-23T00:16:27.333Z,0.00
2022-10-23T00:17:27.243Z,0.00
2022-10-23T00:18:27.183Z,0.00
2022-10-23T00:19:27.146Z,0.00
2022-10-23T00:20:27.077Z,0.00
2022-10-23T00:21:27.032Z,0.00
2022-10-23T00:22:26.972Z,0.00
2022-10-23T00:23:26.936Z,0.00
2022-10-23T00:24:26.871Z,0.00
2022-10-23T00:25:26.837Z,0.00
2022-10-23T00:26:26.759Z,0.00
2022-10-23T00:27:26.706Z,0.00
2022-10-23T00:28:26.654Z,0.00
2022-10-23T00:29:26.604Z,0.00
2022-10-23T00:30:26.562Z,0.00
2022-10-23T00:31:26.500Z,0.00
2022-10-23T00:32:26.466Z,0.00
2022-10-23T00:33:26.389Z,0.00
2022-10-23T00:34:26.352Z,0.00
2022-10-23T00:35:26.314Z,0.00
2022-10-23T00:36:26.231Z,0.00
2022-10-23T00:37:26.177Z,0.00
2022-10-23T00:38:26.129Z,0.00
2022-10-23T00:39:26.074Z,0.00
2022-10-23T00:40:26.069Z,0.00
2022-10-23T00:41:25.988Z,0.00
2022-10-23T00:42:25.917Z,0.00
2022-10-23T00:43:25.863Z,0.00
2022-10-23T00:44:25.809Z,0.00
2022-10-23T00:45:25.756Z,0.00
2022-10-23T00:46:25.713Z,0.00
2022-10-23T00:47:25.694Z,0.00
2022-10-23T00:48:25.597Z,0.00
2022-10-23T00:49:25.546Z,0.00
2022-10-23T00:50:25.494Z,0.00
2022-10-23T00:51:25.456Z,0.00
2022-10-23T00:52:25.398Z,0.00
2022-10-23T00:53:25.333Z,0.00
2022-10-23T00:54:25.650Z,0.00
2022-10-23T00:55:25.224Z,0.00
2022-10-23T00:56:25.185Z,0.00
2022-10-23T00:57:25.158Z,0.00
2022-10-23T00:58:25.064Z,0.00
2022-10-23T00:59:25.057Z,0.00
2022-10-23T01:00:24.960Z,0.00
2022-10-23T01:01:25.144Z,0.00
2022-10-23T01:02:24.916Z,0.00
2022-10-23T01:03:24.799Z,0.00
2022-10-23T01:04:24.748Z,0.00
2022-10-23T01:05:24.693Z,0.00
2022-10-23T01:06:24.638Z,0.00
2022-10-23T01:07:24.601Z,0.00
2022-10-23T01:08:24.535Z,0.00
2022-10-23T01:09:24.483Z,0.00
2022-10-23T01:10:24.427Z,0.00
2022-10-23T01:11:24.380Z,0.00
2022-10-23T01:12:24.337Z,0.00
2022-10-23T01:13:24.269Z,0.00
2022-10-23T01:14:24.214Z,0.00
2022-10-23T01:15:24.162Z,0.00
2022-10-23T01:16:24.113Z,0.00
2022-10-23T01:17:24.075Z,0.00
2022-10-23T01:18:24.004Z,0.00
2022-10-23T01:19:23.946Z,0.00
2022-10-23T01:20:23.898Z,0.00
2022-10-23T01:21:23.844Z,0.00
2022-10-23T01:23:23.738Z,0.00
2022-10-23T01:24:23.691Z,0.00
2022-10-23T01:25:23.631Z,0.00
2022-10-23T01:26:23.577Z,0.00
2022-10-23T01:27:23.542Z,0.00
2022-10-23T01:28:23.470Z,0.00
2022-10-23T01:29:23.420Z,0.00
2022-10-23T01:30:23.380Z,0.00
2022-10-23T01:31:23.310Z,0.00
2022-10-23T01:32:23.262Z,0.00
2022-10-23T01:33:23.219Z,0.00
2022-10-23T01:34:23.151Z,0.00
2022-10-23T01:35:23.113Z,0.00
2022-10-23T01:36:23.063Z,0.00
2022-10-23T01:37:22.991Z,0.00
2022-10-23T01:38:22.952Z,0.00
2022-10-23T01:39:22.886Z,0.00
2022-10-23T01:40:22.840Z,0.00
2022-10-23T01:41:22.793Z,0.00
2022-10-23T01:42:22.725Z,0.00
2022-10-23T01:43:22.684Z,0.00
2022-10-23T01:44:22.617Z,0.00
2022-10-23T01:45:22.566Z,0.00
2022-10-23T01:46:22.510Z,0.00
2022-10-23T01:47:22.493Z,0.00
2022-10-23T01:48:22.418Z,0.00
2022-10-23T01:49:22.352Z,0.00
2022-10-23T01:50:22.300Z,0.00
2022-10-23T01:51:22.246Z,0.00
2022-10-23T01:52:22.190Z,0.00
2022-10-23T01:53:22.158Z,0.00
2022-10-23T01:54:22.086Z,0.00
2022-10-23T01:55:22.028Z,0.00
2022-10-23T01:56:21.976Z,0.00
2022-10-23T01:57:21.925Z,0.00
2022-10-23T01:58:21.874Z,0.00
2022-10-23T01:59:21.834Z,0.00
2022-10-23T02:00:21.762Z,0.00
2022-10-23T02:01:21.834Z,0.00
2022-10-23T02:02:21.675Z,0.00
2022-10-23T02:03:21.604Z,0.00
2022-10-23T02:04:21.570Z,0.00
2022-10-23T02:05:21.499Z,0.00
2022-10-23T02:06:21.443Z,0.00
2022-10-23T02:07:21.404Z,0.00
2022-10-23T02:08:21.351Z,0.00
2022-10-23T02:09:21.281Z,0.00
2022-10-23T02:10:21.230Z,0.00
2022-10-23T02:11:21.178Z,0.00
2022-10-23T02:12:21.143Z,0.00
2022-10-23T02:13:21.082Z,0.00
2022-10-23T02:14:21.014Z,0.00
2022-10-23T02:15:20.959Z,0.00
2022-10-23T02:16:20.922Z,0.00
2022-10-23T02:17:20.854Z,0.00
2022-10-23T02:18:20.802Z,0.00
2022-10-23T02:19:20.745Z,0.00
2022-10-23T02:20:20.708Z,0.00
2022-10-23T02:21:20.658Z,0.00
2022-10-23T02:22:20.584Z,0.00
2022-10-23T02:23:20.544Z,0.00
2022-10-23T02:24:20.484Z,0.00
2022-10-23T02:25:20.426Z,0.00
2022-10-23T02:26:20.389Z,0.00
2022-10-23T02:27:20.342Z,0.00
2022-10-23T02:28:20.268Z,0.00
2022-10-23T02:29:20.212Z,0.00
2022-10-23T02:30:20.163Z,0.00
2022-10-23T02:31:20.121Z,0.00
2022-10-23T02:32:20.054Z,0.00
2022-10-23T02:33:20.000Z,0.00
2022-10-23T02:34:19.942Z,0.00
2022-10-23T02:35:19.893Z,0.00
2022-10-23T02:36:19.851Z,0.00
2022-10-23T02:38:19.756Z,0.00
2022-10-23T02:39:19.691Z,0.00
2022-10-23T02:40:19.623Z,0.00
2022-10-23T02:41:19.570Z,0.00
2022-10-23T02:42:19.515Z,0.00
2022-10-23T02:43:19.479Z,0.00
2022-10-23T02:44:19.424Z,0.00
2022-10-23T02:45:19.356Z,0.00
2022-10-23T02:46:19.305Z,0.00
2022-10-23T02:47:19.249Z,0.00
2022-10-23T02:48:19.209Z,0.00
2022-10-23T02:49:19.145Z,0.00
2022-10-23T02:50:19.853Z,0.00
2022-10-23T02:51:19.038Z,0.00
2022-10-23T02:52:18.999Z,0.00
2022-10-23T02:53:18.945Z,0.00
2022-10-23T02:54:18.888Z,0.00
2022-10-23T02:55:18.835Z,0.00
2022-10-23T02:56:27.932Z,0.00
2022-10-23T02:57:18.716Z,0.00
2022-10-23T02:58:18.676Z,0.00
2022-10-23T02:59:18.606Z,0.00
2022-10-23T03:00:18.642Z,0.00
2022-10-23T03:01:18.576Z,0.00
2022-10-23T03:02:18.536Z,0.00
2022-10-23T03:03:18.394Z,0.00
2022-10-23T03:04:18.352Z,0.00
2022-10-23T03:05:18.465Z,0.00
2022-10-23T03:06:18.253Z,0.00
2022-10-23T03:07:18.197Z,0.00
2022-10-23T03:08:18.125Z,0.00
2022-10-23T03:09:18.072Z,0.00
2022-10-23T03:10:18.020Z,0.00
2022-10-23T03:11:17.965Z,0.00
2022-10-23T03:12:17.914Z,0.00
2022-10-23T03:13:17.874Z,0.00
2022-10-23T03:14:17.803Z,0.00
2022-10-23T03:15:17.753Z,0.00
2022-10-23T03:16:17.697Z,0.00
2022-10-23T03:17:17.644Z,0.00
2022-10-23T03:18:17.633Z,0.00
2022-10-23T03:19:17.546Z,0.00
2022-10-23T03:20:17.483Z,0.00
2022-10-23T03:21:17.444Z,0.00
2022-10-23T03:22:17.378Z,0.00
2022-10-23T03:23:17.326Z,0.00
2022-10-23T03:24:17.270Z,0.00
2022-10-23T03:25:17.221Z,0.00
2022-10-23T03:26:17.198Z,0.00
2022-10-23T03:27:17.183Z,0.00
2022-10-23T03:28:17.058Z,0.00
2022-10-23T03:29:17.005Z,0.00
2022-10-23T03:30:16.951Z,0.00
2022-10-23T03:31:16.898Z,0.00
2022-10-23T03:32:16.862Z,0.00
2022-10-23T03:33:16.805Z,0.00
2022-10-23T03:34:16.736Z,0.00
2022-10-23T03:35:16.683Z,0.00
2022-10-23T03:36:16.631Z,0.00
2022-10-23T03:37:16.577Z,0.00
2022-10-23T03:38:16.523Z,0.00
2022-10-23T03:39:16.966Z,0.00
2022-10-23T03:40:16.415Z,0.00
2022-10-23T03:41:16.381Z,0.00
2022-10-23T03:42:16.310Z,0.00
2022-10-23T03:43:16.271Z,0.00
2022-10-23T03:44:16.206Z,0.00
2022-10-23T03:45:16.150Z,0.00
2022-10-23T03:46:16.096Z,0.00
2022-10-23T03:47:16.081Z,0.00
2022-10-23T03:48:16.002Z,0.00
2022-10-23T03:49:15.938Z,0.00
2022-10-23T03:50:15.883Z,0.00
2022-10-23T03:51:15.829Z,0.00
2022-10-23T03:52:15.815Z,0.00
2022-10-23T03:53:15.740Z,0.00
2022-10-23T03:54:15.670Z,0.00
2022-10-23T03:55:15.614Z,0.00
2022-10-23T03:56:15.565Z,0.00
2022-10-23T03:57:15.512Z,0.00
2022-10-23T03:58:15.475Z,0.00
2022-10-23T03:59:15.405Z,0.00
2022-10-23T04:00:15.350Z,0.00
2022-10-23T04:01:15.348Z,0.00
2022-10-23T04:02:15.284Z,0.00
2022-10-23T04:03:15.200Z,0.00
2022-10-23T04:04:15.167Z,0.00
2022-10-23T04:05:15.085Z,0.00
2022-10-23T04:06:15.029Z,0.00
2022-10-23T04:07:14.993Z,0.00
2022-10-23T04:08:17.704Z,0.00
2022-10-23T04:09:14.877Z,0.00
2022-10-23T04:10:14.832Z,0.00
2022-10-23T04:11:14.767Z,0.00
2022-10-23T04:12:14.712Z,0.00
2022-10-23T04:13:14.677Z,0.00
2022-10-23T04:14:14.622Z,0.00
2022-10-23T04:15:14.575Z,0.00
2022-10-23T04:16:14.500Z,0.00
2022-10-23T04:17:14.463Z,0.00
2022-10-23T04:18:14.410Z,0.00
2022-10-23T04:19:14.337Z,0.00
2022-10-23T04:20:14.303Z,0.00
2022-10-23T04:21:14.231Z,0.00
2022-10-23T04:22:14.181Z,0.00
2022-10-23T04:23:14.145Z,0.00
2022-10-23T04:24:14.073Z,0.00
2022-10-23T04:25:14.020Z,0.00
2022-10-23T04:26:13.994Z,0.00
2022-10-23T04:27:13.914Z,0.00
2022-10-23T04:28:13.861Z,0.00
2022-10-23T04:29:13.805Z,0.00
2022-10-23T04:30:13.754Z,0.00
2022-10-23T04:31:13.699Z,0.00
2022-10-23T04:32:13.684Z,0.00
2022-10-23T04:33:13.597Z,0.00
2022-10-23T04:34:13.546Z,0.00
2022-10-23T04:35:13.488Z,0.00
2022-10-23T04:36:13.433Z,0.00
2022-10-23T04:37:13.396Z,0.00
2022-10-23T04:38:13.325Z,0.00
2022-10-23T04:39:13.287Z,0.00
2022-10-23T04:40:13.232Z,0.00
2022-10-23T04:41:13.164Z,0.00
2022-10-23T04:42:13.148Z,0.00
2022-10-23T04:43:13.056Z,0.00
2022-10-23T04:44:13.017Z,0.00
2022-10-23T04:45:12.964Z,0.00
2022-10-23T04:46:12.896Z,0.00
2022-10-23T04:47:12.862Z,0.00
2022-10-23T04:48:12.791Z,0.00
2022-10-23T04:49:12.751Z,0.00
2022-10-23T04:50:12.683Z,0.00
2022-10-23T04:51:12.629Z,0.00
2022-10-23T04:52:12.592Z,0.00
2022-10-23T04:53:12.525Z,0.00
2022-10-23T04:54:12.467Z,0.00
2022-10-23T04:55:12.415Z,0.00
2022-10-23T04:56:12.375Z,0.00
2022-10-23T04:57:12.313Z,0.00
2022-10-23T04:58:12.270Z,0.00
2022-10-23T04:59:12.202Z,0.00
2022-10-23T05:00:12.146Z,0.00
2022-10-23T05:01:12.261Z,0.00
2022-10-23T05:02:12.053Z,0.00
2022-10-23T05:03:11.986Z,0.00
2022-10-23T05:04:11.941Z,0.00
2022-10-23T05:05:11.879Z,0.00
2022-10-23T05:06:11.826Z,0.00
2022-10-23T05:07:11.842Z,0.00
2022-10-23T05:08:15.535Z,0.00
2022-10-23T05:09:11.677Z,0.00
2022-10-23T05:10:11.610Z,0.00
2022-10-23T05:11:11.558Z,0.00
2022-10-23T05:12:11.522Z,0.00
2022-10-23T05:13:11.450Z,0.00
2022-10-23T05:14:11.395Z,0.00
2022-10-23T05:15:11.342Z,0.00
2022-10-23T05:16:11.288Z,0.00
2022-10-23T05:17:11.338Z,0.00
2022-10-23T05:18:11.185Z,0.00
2022-10-23T05:19:11.125Z,0.00
2022-10-23T05:20:11.074Z,0.00
2022-10-23T05:21:11.019Z,0.00
2022-10-23T05:22:10.980Z,0.00
2022-10-23T05:23:10.911Z,0.00
2022-10-23T05:24:10.858Z,0.00
2022-10-23T05:25:10.809Z,0.00
2022-10-23T05:26:10.751Z,0.00
2022-10-23T05:27:10.714Z,0.00
2022-10-23T05:28:10.648Z,4.00
2022-10-23T05:29:10.593Z,0.00
2022-10-23T05:30:10.543Z,0.00
2022-10-23T05:31:10.489Z,0.00
2022-10-23T05:32:10.527Z,0.00
2022-10-23T05:33:10.379Z,4.00
2022-10-23T05:34:13.302Z,0.00
2022-10-23T05:35:10.269Z,4.00
2022-10-23T05:36:10.217Z,4.00
2022-10-23T05:37:10.193Z,4.00
2022-10-23T05:38:10.123Z,4.00
2022-10-23T05:39:10.057Z,8.00
2022-10-23T05:40:10.007Z,8.00
2022-10-23T05:41:09.951Z,8.00
2022-10-23T05:42:09.898Z,8.00
2022-10-23T05:43:09.854Z,12.00
2022-10-23T05:44:09.788Z,16.00
2022-10-23T05:45:09.735Z,20.00
2022-10-23T05:46:09.683Z,24.00
2022-10-23T05:47:09.630Z,32.00
2022-10-23T05:48:16.886Z,32.00
2022-10-23T05:49:09.524Z,36.00
2022-10-23T05:50:09.481Z,36.00
2022-10-23T05:51:09.416Z,36.00
2022-10-23T05:52:09.361Z,36.00
2022-10-23T05:53:09.323Z,44.00
2022-10-23T05:54:09.268Z,44.00
2022-10-23T05:55:09.203Z,48.00
2022-10-23T05:56:09.157Z,56.00
2022-10-23T05:57:09.191Z,60.00
2022-10-23T05:58:09.039Z,68.00
2022-10-23T05:59:09.002Z,76.00
2022-10-23T06:00:08.935Z,88.00
2022-10-23T06:01:09.015Z,100.00
2022-10-23T06:02:08.875Z,124.00
2022-10-23T06:03:08.791Z,148.00
2022-10-23T06:04:08.733Z,180.00
2022-10-23T06:05:08.799Z,216.00
2022-10-23T06:06:08.613Z,252.00
2022-10-23T06:07:08.560Z,292.00
2022-10-23T06:08:08.507Z,328.00
2022-10-23T06:09:08.469Z,360.00
2022-10-23T06:10:08.415Z,392.00
2022-10-23T06:11:08.350Z,424.00
2022-10-23T06:12:08.294Z,460.00
2022-10-23T06:13:08.242Z,492.00
2022-10-23T06:14:08.186Z,528.00
2022-10-23T06:15:08.149Z,560.00
2022-10-23T06:16:09.721Z,592.00
2022-10-23T06:17:08.031Z,624.00
2022-10-23T06:18:07.972Z,664.00
2022-10-23T06:19:07.922Z,700.00
2022-10-23T06:20:07.887Z,736.00
2022-10-23T06:21:07.816Z,772.00
2022-10-23T06:22:07.817Z,808.00
2022-10-23T06:23:07.707Z,848.00
2022-10-23T06:24:07.659Z,888.00
2022-10-23T06:25:07.617Z,924.00
2022-10-23T06:26:07.548Z,940.00
2022-10-23T06:27:07.503Z,948.00
2022-10-23T06:28:07.458Z,964.00
2022-10-23T06:29:07.404Z,996.00
2022-10-23T06:30:07.341Z,1032.00
2022-10-23T06:31:07.299Z,1052.00
2022-10-23T06:32:07.232Z,1080.00
2022-10-23T06:33:07.179Z,1136.00
2022-10-23T06:34:07.131Z,1204.00
2022-10-23T06:35:07.085Z,1296.00
2022-10-23T06:36:07.019Z,1428.00
2022-10-23T06:37:06.966Z,1532.00
2022-10-23T06:38:06.912Z,1604.00
2022-10-23T06:39:06.873Z,1756.00
2022-10-23T06:40:06.813Z,1880.00
2022-10-23T06:41:06.755Z,2000.00
2022-10-23T06:42:06.703Z,2208.00
2022-10-23T06:43:06.660Z,2160.00
2022-10-23T06:44:06.615Z,2412.00
2022-10-23T06:45:07.354Z,3040.00
2022-10-23T06:46:06.493Z,6032.00
2022-10-23T06:47:06.544Z,10896.00
2022-10-23T06:48:06.385Z,10544.00
2022-10-23T06:49:06.344Z,13760.00
2022-10-23T06:50:06.281Z,17184.00
2022-10-23T06:51:06.230Z,25024.00
2022-10-23T06:52:11.069Z,21952.00
2022-10-23T06:53:06.135Z,23680.00
2022-10-23T06:54:06.069Z,26880.00
2022-10-23T06:55:06.030Z,39008.00
2022-10-23T06:56:05.965Z,39712.00
2022-10-23T06:57:05.914Z,27328.00
2022-10-23T06:58:05.883Z,20224.00
2022-10-23T06:59:05.809Z,20256.00
2022-10-23T07:00:05.774Z,15680.00
2022-10-23T07:01:05.818Z,17056.00
2022-10-23T07:02:05.673Z,12532.00
2022-10-23T07:03:05.607Z,17184.00
2022-10-23T07:04:05.570Z,14624.00
2022-10-23T07:05:08.712Z,13648.00
2022-10-23T07:06:05.457Z,11272.00
2022-10-23T07:07:05.410Z,21184.00
2022-10-23T07:08:05.354Z,29120.00
2022-10-23T07:09:05.320Z,29728.00
2022-10-23T07:10:05.323Z,45600.00
2022-10-23T07:11:05.224Z,32128.00
2022-10-23T07:12:05.154Z,45344.00
2022-10-23T07:13:05.105Z,28896.00
2022-10-23T07:14:05.056Z,21088.00
2022-10-23T07:15:05.005Z,17120.00
2022-10-23T07:16:04.970Z,15084.00
2022-10-23T07:17:04.907Z,11584.00
2022-10-23T07:18:04.861Z,9372.00
2022-10-23T07:19:04.808Z,8364.00
2022-10-23T07:20:04.759Z,8096.00
2022-10-23T07:21:04.724Z,8740.00
2022-10-23T07:22:04.659Z,10644.00
2022-10-23T07:23:04.629Z,11848.00
2022-10-23T07:24:04.558Z,14332.00
2022-10-23T07:25:04.511Z,23360.00
2022-10-23T07:26:04.460Z,27616.00
2022-10-23T07:27:04.410Z,37056.00
2022-10-23T07:28:04.356Z,37824.00
2022-10-23T07:29:04.322Z,51776.00
2022-10-23T07:30:04.275Z,48000.00
2022-10-23T07:31:04.209Z,65984.00
2022-10-23T07:32:04.161Z,60608.00
2022-10-23T07:33:04.113Z,59552.00
2022-10-23T07:34:04.065Z,54624.00
2022-10-23T07:35:04.141Z,39008.00
2022-10-23T07:36:03.969Z,48768.00
2022-10-23T07:37:03.930Z,59328.00
2022-10-23T07:38:03.875Z,66080.00
2022-10-23T07:39:03.823Z,57248.00
2022-10-23T07:40:03.801Z,60448.00
2022-10-23T07:41:03.732Z,51968.00
2022-10-23T07:42:03.703Z,36288.00
2022-10-23T07:43:03.639Z,44544.00
2022-10-23T07:44:03.603Z,47584.00
2022-10-23T07:45:03.580Z,46400.00
2022-10-23T07:46:03.500Z,40128.00
2022-10-23T07:47:03.454Z,32256.00
2022-10-23T07:48:03.418Z,29280.00
2022-10-23T07:49:03.361Z,24288.00
2022-10-23T07:50:03.329Z,23616.00
2022-10-23T07:51:03.276Z,32832.00
2022-10-23T07:53:03.182Z,21120.00
2022-10-23T07:54:03.144Z,16064.00
2022-10-23T07:55:03.106Z,36480.00
2022-10-23T07:56:03.039Z,29120.00
2022-10-23T07:57:03.538Z,37568.00
2022-10-23T07:58:02.945Z,20768.00
2022-10-23T07:59:02.928Z,13428.00
2022-10-23T08:00:02.852Z,12432.00
2022-10-23T08:01:02.838Z,21568.00
2022-10-23T08:02:02.777Z,12732.00
2022-10-23T08:03:02.736Z,16192.00
2022-10-23T08:04:02.678Z,13272.00
2022-10-23T08:05:02.615Z,12464.00
2022-10-23T08:06:02.569Z,19072.00
2022-10-23T08:07:02.517Z,16512.00
2022-10-23T08:08:02.468Z,8776.00
2022-10-23T08:09:05.469Z,10224.00
2022-10-23T08:10:02.388Z,10260.00
2022-10-23T08:11:02.324Z,31968.00
2022-10-23T08:12:02.278Z,24192.00
2022-10-23T08:13:02.246Z,63712.00
2022-10-23T08:14:02.192Z,59648.00
2022-10-23T08:15:02.145Z,59840.00
2022-10-23T08:16:02.086Z,47008.00
2022-10-23T08:18:01.995Z,18080.00
2022-10-23T08:19:01.944Z,12352.00
2022-10-23T08:20:01.912Z,15200.00
2022-10-23T08:21:01.861Z,16096.00
2022-10-23T08:22:01.799Z,22496.00
2022-10-23T08:23:01.749Z,20576.00
2022-10-23T08:24:01.706Z,16608.00
2022-10-23T08:25:01.673Z,12568.00
2022-10-23T08:26:01.623Z,16128.00
2022-10-23T08:27:01.562Z,15808.00
2022-10-23T08:28:04.235Z,13020.00
2022-10-23T08:29:01.471Z,18400.00
2022-10-23T08:30:01.446Z,21664.00
2022-10-23T08:31:01.384Z,15904.00
2022-10-23T08:32:01.331Z,13812.00
2022-10-23T08:33:01.367Z,15616.00
2022-10-23T08:34:01.257Z,18304.00
2022-10-23T08:35:01.200Z,21760.00
2022-10-23T08:36:01.156Z,22208.00
2022-10-23T08:37:01.103Z,15424.00
2022-10-23T08:38:01.061Z,14420.00
2022-10-23T08:39:01.035Z,12884.00
2022-10-23T08:40:00.969Z,16896.00
2022-10-23T08:41:00.924Z,18688.00
2022-10-23T08:42:00.962Z,13620.00
2022-10-23T08:43:00.834Z,11936.00
2022-10-23T08:44:00.791Z,9312.00
2022-10-23T08:45:00.750Z,11012.00
2022-10-23T08:46:00.702Z,12084.00
2022-10-23T08:47:00.668Z,14488.00
2022-10-23T08:48:00.608Z,15008.00
2022-10-23T08:49:00.564Z,11676.00
2022-10-23T08:50:00.524Z,13452.00
2022-10-23T08:51:00.474Z,11300.00
2022-10-23T08:52:00.425Z,13752.00
2022-10-23T08:53:00.396Z,11572.00
2022-10-23T08:54:00.336Z,10900.00
2022-10-23T08:55:00.290Z,12620.00
2022-10-23T08:56:00.245Z,10308.00
2022-10-23T08:57:00.203Z,10608.00
2022-10-23T08:58:00.166Z,10328.00
2022-10-23T08:59:00.195Z,10448.00
2022-10-23T09:00:00.086Z,10844.00
2022-10-23T09:01:00.219Z,9544.00
2022-10-23T09:02:00.179Z,11060.00
2022-10-23T09:02:59.934Z,9648.00
2022-10-23T09:03:59.875Z,7696.00
2022-10-23T09:04:59.828Z,7952.00
2022-10-23T09:05:59.781Z,8108.00
2022-10-23T09:06:59.837Z,7860.00
2022-10-23T09:07:59.686Z,7852.00
2022-10-23T09:08:59.639Z,7244.00
2022-10-23T09:09:59.592Z,6780.00
2022-10-23T09:10:59.542Z,6304.00
2022-10-23T09:11:59.516Z,5852.00
2022-10-23T09:12:59.465Z,5300.00
2022-10-23T09:13:59.430Z,4624.00
2022-10-23T09:14:59.353Z,4712.00
2022-10-23T09:15:59.309Z,4764.00
2022-10-23T09:16:59.270Z,4736.00
2022-10-23T09:17:59.210Z,4548.00
2022-10-23T09:18:59.162Z,4544.00
2022-10-23T09:19:59.116Z,4508.00
2022-10-23T09:20:59.083Z,4524.00
2022-10-23T09:21:59.017Z,4400.00
2022-10-23T09:22:58.970Z,4384.00
2022-10-23T09:23:58.919Z,4540.00
2022-10-23T09:24:58.875Z,4540.00
2022-10-23T09:25:58.837Z,4192.00
2022-10-23T09:26:58.823Z,4268.00
2022-10-23T09:28:01.364Z,4692.00
2022-10-23T09:28:58.676Z,5128.00
2022-10-23T09:29:58.630Z,5192.00
2022-10-23T09:30:58.596Z,5000.00
2022-10-23T09:31:58.535Z,5356.00
2022-10-23T09:32:58.485Z,5740.00
2022-10-23T09:33:58.433Z,5960.00
2022-10-23T09:34:58.569Z,5832.00
2022-10-23T09:35:58.335Z,5464.00
2022-10-23T09:36:58.289Z,5020.00
2022-10-23T09:37:58.241Z,5200.00
2022-10-23T09:38:58.207Z,4832.00
2022-10-23T09:39:58.146Z,5040.00
2022-10-23T09:40:58.135Z,4892.00
2022-10-23T09:41:58.045Z,4372.00
2022-10-23T09:42:58.583Z,4072.00
2022-10-23T09:43:57.952Z,3908.00
2022-10-23T09:44:57.902Z,3860.00
2022-10-23T09:45:57.932Z,3688.00
2022-10-23T09:46:58.559Z,3544.00
2022-10-23T09:47:57.785Z,3600.00
2022-10-23T09:48:59.031Z,3732.00
2022-10-23T09:49:57.662Z,3872.00
2022-10-23T09:50:57.614Z,3928.00
2022-10-23T09:51:57.565Z,3792.00
2022-10-23T09:52:57.519Z,3636.00
2022-10-23T09:53:57.485Z,3400.00
2022-10-23T09:54:57.453Z,3388.00
2022-10-23T09:55:57.373Z,3380.00
2022-10-23T09:56:57.322Z,3304.00
2022-10-23T09:57:57.278Z,3236.00
2022-10-23T09:58:57.243Z,3284.00
2022-10-23T09:59:57.178Z,3196.00
2022-10-23T10:00:57.247Z,3172.00
2022-10-23T10:01:57.118Z,3260.00
2022-10-23T10:02:57.036Z,3368.00
2022-10-23T10:03:56.999Z,3492.00
2022-10-23T10:04:56.935Z,3560.00
2022-10-23T10:05:56.885Z,3728.00
2022-10-23T10:06:56.850Z,3648.00
2022-10-23T10:07:57.019Z,3612.00
2022-10-23T10:08:56.738Z,3412.00
2022-10-23T10:09:56.690Z,3140.00
2022-10-23T10:10:56.651Z,2852.00
2022-10-23T10:11:56.607Z,2592.00
2022-10-23T10:12:58.391Z,2368.00
2022-10-23T10:13:56.491Z,2224.00
2022-10-23T10:14:56.443Z,2072.00
2022-10-23T10:15:56.411Z,1928.00
2022-10-23T10:16:56.359Z,1812.00
2022-10-23T10:17:56.292Z,1704.00
2022-10-23T10:18:56.247Z,1624.00
2022-10-23T10:19:56.195Z,1600.00
2022-10-23T10:20:56.162Z,1624.00
2022-10-23T10:21:56.095Z,1648.00
2022-10-23T10:22:56.060Z,1700.00
2022-10-23T10:23:56.000Z,1768.00
2022-10-23T10:24:55.948Z,1832.00
2022-10-23T10:25:55.911Z,2016.00
2022-10-23T10:26:55.849Z,2212.00
2022-10-23T10:27:55.803Z,2376.00
2022-10-23T10:28:55.763Z,2488.00
2022-10-23T10:29:55.697Z,2576.00
2022-10-23T10:30:55.723Z,2724.00
2022-10-23T10:31:55.617Z,2876.00
2022-10-23T10:32:55.567Z,2940.00
2022-10-23T10:33:55.501Z,2992.00
2022-10-23T10:34:55.453Z,3040.00
2022-10-23T10:35:55.402Z,3032.00
2022-10-23T10:36:55.352Z,2992.00
2022-10-23T10:37:55.319Z,2940.00
2022-10-23T10:38:55.256Z,2920.00
2022-10-23T10:39:55.202Z,2888.00
2022-10-23T10:40:55.149Z,2832.00
2022-10-23T10:41:55.100Z,2764.00
2022-10-23T10:42:55.069Z,2712.00
2022-10-23T10:43:55.003Z,2716.00
2022-10-23T10:44:54.966Z,2780.00
2022-10-23T10:45:54.902Z,2804.00
2022-10-23T10:46:54.865Z,2812.00
2022-10-23T10:47:54.820Z,2808.00
2022-10-23T10:48:54.756Z,2792.00
2022-10-23T10:49:54.701Z,2764.00
2022-10-23T10:50:54.651Z,2808.00
2022-10-23T10:51:54.601Z,2776.00
2022-10-23T10:52:54.572Z,2776.00
2022-10-23T10:53:54.503Z,2816.00
2022-10-23T10:54:54.453Z,2968.00
2022-10-23T10:55:54.404Z,3112.00
2022-10-23T10:56:54.354Z,3268.00
2022-10-23T10:57:56.824Z,3556.00
2022-10-23T10:58:54.255Z,3872.00
2022-10-23T10:59:54.213Z,3988.00
2022-10-23T11:00:54.199Z,4040.00
2022-10-23T11:01:55.117Z,4048.00
2022-10-23T11:02:54.069Z,4004.00
2022-10-23T11:03:54.005Z,3848.00
2022-10-23T11:04:53.955Z,3648.00
2022-10-23T11:05:53.961Z,3416.00
2022-10-23T11:06:53.869Z,3336.00
2022-10-23T11:07:53.804Z,3136.00
2022-10-23T11:08:57.621Z,2904.00
2022-10-23T11:09:53.707Z,2760.00
2022-10-23T11:10:53.656Z,2732.00
2022-10-23T11:11:53.623Z,2740.00
2022-10-23T11:12:53.555Z,2912.00
2022-10-23T11:13:53.510Z,3004.00
2022-10-23T11:14:53.475Z,2980.00
2022-10-23T11:15:53.414Z,2972.00
2022-10-23T11:16:53.376Z,3036.00
2022-10-23T11:17:53.308Z,3060.00
2022-10-23T11:18:53.258Z,3192.00
2022-10-23T11:19:53.218Z,3360.00
2022-10-23T11:20:53.164Z,3428.00
2022-10-23T11:21:53.123Z,3592.00
2022-10-23T11:22:53.099Z,3720.00
2022-10-23T11:23:53.011Z,3772.00
2022-10-23T11:24:54.578Z,3764.00
2022-10-23T11:25:52.929Z,3744.00
2022-10-23T11:26:52.863Z,3724.00
2022-10-23T11:27:52.816Z,3664.00
2022-10-23T11:28:52.763Z,3608.00
2022-10-23T11:29:52.713Z,3624.00
2022-10-23T11:30:52.678Z,3712.00
2022-10-23T11:31:52.616Z,3808.00
2022-10-23T11:32:52.568Z,3700.00
2022-10-23T11:33:52.533Z,3516.00
2022-10-23T11:34:52.491Z,3500.00
2022-10-23T11:35:52.415Z,3248.00
2022-10-23T11:36:53.092Z,3016.00
2022-10-23T11:37:52.320Z,2872.00
2022-10-23T11:38:52.282Z,2768.00
2022-10-23T11:39:52.235Z,2680.00
2022-10-23T11:40:52.203Z,2596.00
2022-10-23T11:41:52.126Z,2528.00
2022-10-23T11:42:52.071Z,2472.00
2022-10-23T11:43:52.023Z,2420.00
2022-10-23T11:44:51.993Z,2336.00
2022-10-23T11:45:51.921Z,2220.00
2022-10-23T11:46:51.872Z,2152.00
2022-10-23T11:47:51.839Z,2104.00
2022-10-23T11:48:51.776Z,2064.00
2022-10-23T11:49:51.726Z,2036.00
2022-10-23T11:50:51.676Z,2008.00
2022-10-23T11:51:51.644Z,1956.00
2022-10-23T11:53:09.283Z,1904.00
2022-10-23T11:53:51.527Z,1896.00
2022-10-23T11:54:51.481Z,1888.00
2022-10-23T11:55:51.441Z,1880.00
2022-10-23T11:56:51.380Z,1836.00
2022-10-23T11:57:51.330Z,1780.00
2022-10-23T11:58:51.277Z,1732.00
2022-10-23T11:59:51.248Z,1696.00
2022-10-23T12:00:51.183Z,1680.00
2022-10-23T12:01:51.292Z,1676.00
2022-10-23T12:02:53.550Z,1736.00
2022-10-23T12:03:51.034Z,1748.00
2022-10-23T12:04:50.994Z,1772.00
2022-10-23T12:05:50.962Z,1928.00
2022-10-23T12:06:50.901Z,2048.00
2022-10-23T12:07:52.052Z,2124.00
2022-10-23T12:08:50.786Z,1716.00
2022-10-23T12:09:50.736Z,1568.00
2022-10-23T12:10:50.684Z,1544.00
2022-10-23T12:11:50.634Z,1520.00
2022-10-23T12:12:50.599Z,1500.00
2022-10-23T12:13:50.537Z,1468.00
2022-10-23T12:14:50.483Z,1440.00
2022-10-23T12:15:50.436Z,1328.00
2022-10-23T12:16:50.391Z,1200.00
2022-10-23T12:17:50.360Z,1108.00
2022-10-23T12:18:50.289Z,1048.00
2022-10-23T12:19:50.237Z,1024.00
2022-10-23T12:20:50.188Z,1016.00
2022-10-23T12:21:50.155Z,1024.00
2022-10-23T12:22:50.088Z,1048.00
2022-10-23T12:23:50.041Z,1084.00
2022-10-23T12:24:49.991Z,1140.00
2022-10-23T12:25:49.966Z,1176.00
2022-10-23T12:26:49.892Z,1152.00
2022-10-23T12:27:49.839Z,1148.00
2022-10-23T12:28:49.796Z,1176.00
2022-10-23T12:29:49.903Z,1220.00
2022-10-23T12:30:49.738Z,1260.00
2022-10-23T12:31:49.645Z,1292.00
2022-10-23T12:32:49.610Z,1320.00
2022-10-23T12:33:49.559Z,1340.00
2022-10-23T12:34:49.490Z,1376.00
2022-10-23T12:35:50.168Z,1444.00
2022-10-23T12:36:49.402Z,1528.00
2022-10-23T12:37:49.342Z,1584.00